Time;durP1;ratioP1;P1;durP2;ratioP2;P2;SDS_P1;SDS_P2;PMS_P1;PMS_P2;Temp;Humidity;BMP_temperature;BMP_pressure;BME280_temperature;BME280_humidity;BME280_pressure;Samples;Min_cycle;Max_cycle;Signal;HPM_P1;HPM_P2
2021/04/24 00:00:53;;;;;;;18.42;8.98;;;;;;;;;;5113137;28;20426;-57
2021/04/24 00:03:21;;;;;;;19.90;10.20;;;;;;;;;;5113201;28;20039;-58
2021/04/24 00:05:48;;;;;;;14.25;9.88;;;;;;;;;;5113059;28;20038;-57
2021/04/24 00:08:16;;;;;;;20.23;10.27;;;;;;;;;;5113107;28;20110;-57
2021/04/24 00:10:44;;;;;;;14.77;10.97;;;;;;;;;;5113191;28;20051;-57
2021/04/24 00:13:13;;;;;;;21.60;10.50;;;;;;;;;;5113064;28;20254;-58
2021/04/24 00:15:40;;;;;;;23.07;10.00;;;;;;;;;;5112963;28;20410;-57
2021/04/24 00:18:07;;;;;;;20.77;10.80;;;;;;;;;;5112861;28;20027;-57
2021/04/24 00:20:34;;;;;;;18.80;10.20;;;;;;;;;;5112749;28;20138;-57
2021/04/24 00:23:02;;;;;;;17.97;10.30;;;;;;;;;;5112969;28;20051;-56
2021/04/24 00:25:29;;;;;;;19.97;10.07;;;;;;;;;;5113013;28;20028;-56
2021/04/24 00:27:55;;;;;;;19.63;10.77;;;;;;;;;;5112971;28;20433;-57
2021/04/24 00:30:23;;;;;;;16.20;10.67;;;;;;;;;;5112908;28;20027;-57
2021/04/24 00:32:50;;;;;;;18.37;10.47;;;;;;;;;;5112885;28;20074;-58
2021/04/24 00:35:18;;;;;;;26.37;12.20;;;;;;;;;;5112769;28;20028;-57
2021/04/24 00:37:45;;;;;;;18.13;9.87;;;;;;;;;;5113057;28;20096;-57
2021/04/24 00:40:12;;;;;;;22.90;10.47;;;;;;;;;;5112860;28;20041;-57
2021/04/24 00:42:39;;;;;;;20.87;10.70;;;;;;;;;;5112750;28;20027;-57
2021/04/24 00:45:07;;;;;;;16.20;10.00;;;;;;;;;;5112877;28;20024;-57
2021/04/24 00:47:34;;;;;;;21.27;10.80;;;;;;;;;;5112738;28;20496;-57
2021/04/24 00:50:01;;;;;;;17.07;10.27;;;;;;;;;;5113004;28;20138;-57
2021/04/24 00:52:27;;;;;;;16.33;9.97;;;;;;;;;;5116661;28;20031;-56
2021/04/24 00:54:54;;;;;;;14.90;10.30;;;;;;;;;;5116564;28;20474;-56
2021/04/24 00:57:22;;;;;;;20.53;10.13;;;;;;;;;;5116533;28;20313;-57
2021/04/24 00:59:49;;;;;;;19.63;9.87;;;;;;;;;;5116474;28;20040;-57
2021/04/24 01:02:16;;;;;;;20.70;10.63;;;;;;;;;;5116416;28;20102;-57
2021/04/24 01:04:43;;;;;;;20.90;10.37;;;;;;;;;;5116368;28;20112;-57
2021/04/24 01:07:10;;;;;;;20.27;10.10;;;;;;;;;;5116397;28;20031;-57
2021/04/24 01:09:37;;;;;;;17.17;10.80;;;;;;;;;;5116226;28;20108;-57
2021/04/24 01:12:04;;;;;;;15.70;10.13;;;;;;;;;;5116284;28;20084;-57
2021/04/24 01:14:31;;;;;;;18.73;11.10;;;;;;;;;;5116180;28;20474;-57
2021/04/24 01:16:58;;;;;;;15.17;10.67;;;;;;;;;;5116095;28;20454;-57
2021/04/24 01:19:45;;;;;;;16.73;11.00;;;;;;;;;;5115340;27;20142;-57
2021/04/24 01:22:12;;;;;;;18.77;11.57;;;;;;;;;;5116060;28;20470;-57
2021/04/24 01:24:39;;;;;;;16.60;11.47;;;;;;;;;;5115968;28;20077;-57
2021/04/24 01:27:06;;;;;;;24.33;11.23;;;;;;;;;;5115847;28;20433;-56
2021/04/24 01:29:34;;;;;;;19.00;12.53;;;;;;;;;;5115879;28;20081;-57
2021/04/24 01:32:01;;;;;;;19.20;11.90;;;;;;;;;;5115822;28;20019;-57
2021/04/24 01:34:28;;;;;;;22.33;12.23;;;;;;;;;;5115747;28;20394;-57
2021/04/24 01:36:57;;;;;;;22.00;11.70;;;;;;;;;;5115701;28;20024;-57
2021/04/24 01:39:24;;;;;;;22.73;12.00;;;;;;;;;;5115702;28;20467;-56
2021/04/24 01:41:51;;;;;;;19.70;10.63;;;;;;;;;;5115714;28;20028;-56
2021/04/24 01:44:18;;;;;;;16.57;12.20;;;;;;;;;;5115547;28;20028;-56
2021/04/24 01:46:44;;;;;;;19.73;11.63;;;;;;;;;;5115490;28;20108;-56
2021/04/24 01:49:12;;;;;;;14.33;10.80;;;;;;;;;;5115576;28;20035;-56
2021/04/24 01:51:39;;;;;;;19.50;12.13;;;;;;;;;;5115414;28;20028;-56
2021/04/24 01:54:06;;;;;;;20.83;11.60;;;;;;;;;;5115406;28;20024;-56
2021/04/24 01:56:46;;;;;;;17.93;11.60;;;;;;;;;;5115355;28;20081;-57
2021/04/24 01:59:14;;;;;;;17.57;11.43;;;;;;;;;;5115403;28;20027;-56
2021/04/24 02:01:41;;;;;;;18.90;11.03;;;;;;;;;;5114961;28;20023;-57
2021/04/24 02:04:08;;;;;;;17.87;10.77;;;;;;;;;;5115114;28;20371;-56
2021/04/24 02:06:35;;;;;;;15.00;10.63;;;;;;;;;;5115336;28;20049;-56
2021/04/24 02:09:02;;;;;;;17.17;10.47;;;;;;;;;;5115145;28;20024;-57
2021/04/24 02:11:29;;;;;;;14.93;10.47;;;;;;;;;;5115101;28;20019;-56
2021/04/24 02:13:55;;;;;;;16.23;10.93;;;;;;;;;;5115039;28;20023;-56
2021/04/24 02:16:22;;;;;;;18.60;11.40;;;;;;;;;;5114942;28;20043;-56
2021/04/24 02:18:49;;;;;;;16.37;10.40;;;;;;;;;;5114924;28;20027;-56
2021/04/24 02:21:16;;;;;;;16.30;10.43;;;;;;;;;;5114517;27;20138;-56
2021/04/24 02:23:42;;;;;;;20.23;10.80;;;;;;;;;;5114811;28;20032;-56
2021/04/24 02:26:10;;;;;;;18.13;10.53;;;;;;;;;;5114808;28;20028;-56
2021/04/24 02:28:37;;;;;;;17.30;11.00;;;;;;;;;;5114692;28;20034;-56
2021/04/24 02:31:04;;;;;;;16.90;10.30;;;;;;;;;;5114804;28;20043;-57
2021/04/24 02:33:31;;;;;;;21.57;10.80;;;;;;;;;;5114589;28;20059;-56
2021/04/24 02:35:59;;;;;;;18.67;11.13;;;;;;;;;;5114588;28;20026;-56
2021/04/24 02:38:29;;;;;;;19.27;10.83;;;;;;;;;;5114500;28;20024;-56
2021/04/24 02:40:56;;;;;;;16.37;10.57;;;;;;;;;;5114410;28;20019;-56
2021/04/24 02:43:23;;;;;;;18.63;11.43;;;;;;;;;;5114438;28;20032;-56
2021/04/24 02:45:50;;;;;;;21.33;11.10;;;;;;;;;;5114421;28;20111;-56
2021/04/24 02:48:17;;;;;;;17.40;10.50;;;;;;;;;;5114288;28;20468;-56
2021/04/24 02:50:44;;;;;;;17.77;10.63;;;;;;;;;;5114263;28;20039;-56
2021/04/24 02:53:11;;;;;;;16.60;10.60;;;;;;;;;;5114379;28;20030;-56
2021/04/24 02:55:38;;;;;;;18.73;10.40;;;;;;;;;;5114091;28;20058;-56
2021/04/24 02:58:05;;;;;;;12.77;9.00;;;;;;;;;;5114152;28;20036;-56
2021/04/24 03:00:33;;;;;;;11.07;8.70;;;;;;;;;;5114209;28;20038;-56
2021/04/24 03:03:07;;;;;;;13.53;9.10;;;;;;;;;;5114096;28;20103;-56
2021/04/24 03:05:34;;;;;;;;;;;;;;;;;;5114448;28;20027;-57
2021/04/24 03:08:01;;;;;;;14.87;9.03;;;;;;;;;;5114256;28;19904;-56
2021/04/24 03:10:28;;;;;;;18.80;11.10;;;;;;;;;;5113881;28;20028;-56
2021/04/24 03:12:55;;;;;;;13.80;10.50;;;;;;;;;;5113361;28;20065;-56
2021/04/24 03:15:21;;;;;;;16.13;10.27;;;;;;;;;;5113775;28;20027;-56
2021/04/24 03:17:48;;;;;;;17.43;8.73;;;;;;;;;;5113727;28;20034;-56
2021/04/24 03:20:16;;;;;;;13.00;10.00;;;;;;;;;;5113367;28;20044;-57
2021/04/24 03:22:43;;;;;;;17.40;9.40;;;;;;;;;;5114012;28;20034;-56
2021/04/24 03:25:10;;;;;;;18.57;9.97;;;;;;;;;;5113678;28;20089;-56
2021/04/24 03:27:37;;;;;;;15.00;10.20;;;;;;;;;;5114013;28;20027;-56
2021/04/24 03:30:05;;;;;;;16.27;10.57;;;;;;;;;;5113715;28;20043;-56
2021/04/24 03:32:32;;;;;;;15.23;9.50;;;;;;;;;;5113539;28;20103;-56
2021/04/24 03:34:59;;;;;;;13.83;9.40;;;;;;;;;;5113505;28;20497;-56
2021/04/24 03:37:25;;;;;;;17.67;10.33;;;;;;;;;;5113498;28;20049;-56
2021/04/24 03:39:52;;;;;;;14.00;9.73;;;;;;;;;;5113364;28;20094;-56
2021/04/24 03:42:19;;;;;;;22.40;11.20;;;;;;;;;;5113535;28;20023;-56
2021/04/24 03:44:46;;;;;;;17.07;10.53;;;;;;;;;;5113273;28;20028;-56
2021/04/24 03:47:12;;;;;;;16.20;10.50;;;;;;;;;;5113355;28;20126;-56
2021/04/24 03:49:39;;;;;;;16.83;10.83;;;;;;;;;;5113190;28;20020;-56
2021/04/24 03:52:06;;;;;;;16.83;8.87;;;;;;;;;;5113603;28;20344;-56
2021/04/24 03:54:33;;;;;;;17.50;10.13;;;;;;;;;;5113258;28;20028;-56
2021/04/24 03:57:00;;;;;;;14.00;9.07;;;;;;;;;;5113141;28;20080;-56
2021/04/24 03:59:27;;;;;;;15.23;9.17;;;;;;;;;;5113167;28;20394;-56
2021/04/24 04:01:54;;;;;;;13.40;9.43;;;;;;;;;;5113251;28;20035;-56
2021/04/24 04:04:21;;;;;;;17.67;9.00;;;;;;;;;;5113179;28;20085;-56
2021/04/24 04:06:48;;;;;;;11.73;9.07;;;;;;;;;;5113111;28;20098;-56
2021/04/24 04:09:15;;;;;;;16.50;9.10;;;;;;;;;;5113137;28;20042;-56
2021/04/24 04:11:41;;;;;;;13.33;9.27;;;;;;;;;;5113532;28;20034;-56
2021/04/24 04:14:08;;;;;;;18.47;9.27;;;;;;;;;;5113183;28;20024;-56
2021/04/24 04:16:36;;;;;;;15.60;8.70;;;;;;;;;;5113109;28;20076;-56
2021/04/24 04:19:03;;;;;;;13.57;9.13;;;;;;;;;;5112960;28;20032;-56
2021/04/24 04:21:29;;;;;;;15.03;9.73;;;;;;;;;;5112576;28;20122;-56
2021/04/24 04:23:56;;;;;;;20.33;10.87;;;;;;;;;;5113058;28;20031;-56
2021/04/24 04:26:23;;;;;;;15.40;9.20;;;;;;;;;;5115522;28;20080;-56
2021/04/24 04:28:50;;;;;;;16.67;9.83;;;;;;;;;;5117151;28;20033;-56
2021/04/24 04:31:16;;;;;;;15.03;9.40;;;;;;;;;;5116958;28;20023;-56
2021/04/24 04:33:43;;;;;;;17.17;9.30;;;;;;;;;;5116975;28;20024;-56
2021/04/24 04:36:10;;;;;;;13.60;8.13;;;;;;;;;;5116963;28;20106;-56
2021/04/24 04:38:37;;;;;;;15.73;9.20;;;;;;;;;;5116810;28;20044;-56
2021/04/24 04:41:05;;;;;;;17.97;9.17;;;;;;;;;;5116955;28;20024;-56
2021/04/24 04:43:32;;;;;;;20.37;9.83;;;;;;;;;;5116825;28;20042;-56
2021/04/24 04:45:59;;;;;;;13.37;8.83;;;;;;;;;;5116908;28;20019;-56
2021/04/24 04:48:25;;;;;;;14.63;8.37;;;;;;;;;;5116687;28;20024;-56
2021/04/24 04:50:52;;;;;;;16.03;9.67;;;;;;;;;;5116665;28;20060;-56
2021/04/24 04:53:19;;;;;;;13.50;9.13;;;;;;;;;;5116699;28;20351;-57
2021/04/24 04:55:46;;;;;;;14.80;9.87;;;;;;;;;;5116501;28;20032;-57
2021/04/24 04:58:13;;;;;;;15.50;9.73;;;;;;;;;;5116509;28;20118;-56
2021/04/24 05:00:39;;;;;;;17.53;9.80;;;;;;;;;;5116518;28;20102;-56
2021/04/24 05:03:06;;;;;;;12.23;8.77;;;;;;;;;;5116451;28;20034;-56
2021/04/24 05:05:33;;;;;;;15.77;9.07;;;;;;;;;;5116417;28;20509;-56
2021/04/24 05:08:00;;;;;;;15.50;9.23;;;;;;;;;;5116375;28;20471;-56
2021/04/24 05:10:27;;;;;;;13.67;9.60;;;;;;;;;;5116261;28;20076;-56
2021/04/24 05:12:54;;;;;;;16.47;9.37;;;;;;;;;;5116193;28;20428;-56
2021/04/24 05:15:21;;;;;;;13.77;9.00;;;;;;;;;;5116192;28;20032;-56
2021/04/24 05:17:48;;;;;;;11.40;9.20;;;;;;;;;;5116049;28;20374;-56
2021/04/24 05:20:15;;;;;;;15.17;9.33;;;;;;;;;;5115672;27;20044;-56
2021/04/24 05:22:43;;;;;;;14.07;9.33;;;;;;;;;;5116088;28;20390;-57
2021/04/24 05:25:10;;;;;;;19.27;9.13;;;;;;;;;;5115954;28;20016;-56
2021/04/24 05:27:38;;;;;;;14.00;8.63;;;;;;;;;;5115968;28;20035;-56
2021/04/24 05:30:06;;;;;;;10.63;7.83;;;;;;;;;;5116183;28;20036;-56
2021/04/24 05:32:33;;;;;;;11.67;9.17;;;;;;;;;;5115955;28;20042;-56
2021/04/24 05:34:59;;;;;;;9.77;8.10;;;;;;;;;;5115756;28;20107;-56
2021/04/24 05:37:26;;;;;;;13.93;8.30;;;;;;;;;;5115515;28;20031;-57
2021/04/24 05:39:53;;;;;;;12.13;8.60;;;;;;;;;;5115744;28;20036;-56
2021/04/24 05:42:20;;;;;;;12.33;8.70;;;;;;;;;;5115581;28;20076;-56
2021/04/24 05:44:47;;;;;;;15.53;8.93;;;;;;;;;;5115306;28;20027;-56
2021/04/24 05:47:13;;;;;;;15.50;10.00;;;;;;;;;;5115597;28;20020;-56
2021/04/24 05:49:40;;;;;;;16.37;9.73;;;;;;;;;;5115487;28;20028;-56
2021/04/24 05:52:07;;;;;;;16.03;9.97;;;;;;;;;;5115504;28;20055;-56
2021/04/24 05:54:34;;;;;;;18.57;10.00;;;;;;;;;;5115344;28;20074;-56
2021/04/24 05:57:01;;;;;;;14.70;8.87;;;;;;;;;;5115417;28;20035;-56
2021/04/24 05:59:28;;;;;;;11.20;7.67;;;;;;;;;;5115319;28;20038;-56
2021/04/24 06:01:55;;;;;;;15.53;9.20;;;;;;;;;;5115333;28;20027;-56
2021/04/24 06:04:24;;;;;;;15.23;9.00;;;;;;;;;;5115206;28;20023;-57
2021/04/24 06:06:51;;;;;;;14.17;9.57;;;;;;;;;;5115385;28;20028;-56
2021/04/24 06:09:18;;;;;;;10.60;8.43;;;;;;;;;;5115141;28;20031;-56
2021/04/24 06:11:44;;;;;;;13.37;8.10;;;;;;;;;;5115498;28;20055;-56
2021/04/24 06:14:11;;;;;;;17.43;9.17;;;;;;;;;;5115080;28;20038;-56
2021/04/24 06:16:38;;;;;;;14.30;9.20;;;;;;;;;;5115026;28;20034;-56
2021/04/24 06:19:05;;;;;;;14.47;9.20;;;;;;;;;;5114996;28;20116;-56
2021/04/24 06:21:32;;;;;;;14.33;8.80;;;;;;;;;;5114627;28;20114;-56
2021/04/24 06:23:58;;;;;;;14.63;9.97;;;;;;;;;;5114952;28;20027;-56
2021/04/24 06:26:25;;;;;;;14.83;9.73;;;;;;;;;;5114829;28;20036;-56
2021/04/24 06:28:52;;;;;;;12.70;9.40;;;;;;;;;;5114845;28;20035;-56
2021/04/24 06:31:19;;;;;;;16.57;8.10;;;;;;;;;;5114673;28;20024;-56
2021/04/24 06:33:46;;;;;;;14.17;9.17;;;;;;;;;;5114706;28;20023;-56
2021/04/24 06:36:12;;;;;;;14.03;8.33;;;;;;;;;;5114668;28;20015;-56
2021/04/24 06:38:39;;;;;;;13.30;8.50;;;;;;;;;;5114507;28;20039;-56
2021/04/24 06:41:06;;;;;;;12.47;8.63;;;;;;;;;;5114636;28;20083;-56
2021/04/24 06:43:33;;;;;;;11.17;8.30;;;;;;;;;;5114425;28;20031;-57
2021/04/24 06:45:59;;;;;;;13.13;8.50;;;;;;;;;;5114400;28;20020;-56
2021/04/24 06:48:26;;;;;;;13.63;7.97;;;;;;;;;;5113341;28;20020;-56
2021/04/24 06:50:56;;;;;;;12.80;8.40;;;;;;;;;;5114395;28;20035;-56
2021/04/24 06:53:25;;;;;;;15.07;9.57;;;;;;;;;;5114318;28;20023;-56
2021/04/24 06:55:52;;;;;;;14.20;9.97;;;;;;;;;;5095987;28;20023;-56
2021/04/24 06:58:20;;;;;;;11.67;8.73;;;;;;;;;;5114277;28;20053;-56
2021/04/24 07:00:46;;;;;;;17.13;9.20;;;;;;;;;;5114221;28;20034;-56
2021/04/24 07:03:13;;;;;;;10.93;8.40;;;;;;;;;;5114171;28;20115;-56
2021/04/24 07:05:40;;;;;;;13.93;8.70;;;;;;;;;;5114101;28;20098;-56
2021/04/24 07:08:07;;;;;;;11.50;8.33;;;;;;;;;;5114372;28;20027;-56
2021/04/24 07:10:34;;;;;;;11.33;8.00;;;;;;;;;;5113989;28;20023;-56
2021/04/24 07:13:00;;;;;;;14.43;8.57;;;;;;;;;;5113864;28;20054;-56
2021/04/24 07:15:27;;;;;;;12.00;8.87;;;;;;;;;;5113873;28;20024;-56
2021/04/24 07:17:54;;;;;;;16.73;9.63;;;;;;;;;;5113842;28;20023;-56
2021/04/24 07:20:21;;;;;;;12.80;8.93;;;;;;;;;;5113427;27;20052;-56
2021/04/24 07:22:48;;;;;;;15.07;8.13;;;;;;;;;;5113820;28;20102;-56
2021/04/24 07:25:15;;;;;;;12.10;8.03;;;;;;;;;;5113666;28;20428;-56
2021/04/24 07:27:42;;;;;;;11.57;7.73;;;;;;;;;;5113822;28;20035;-56
2021/04/24 07:30:10;;;;;;;12.10;8.77;;;;;;;;;;5113673;28;20031;-56
2021/04/24 07:32:37;;;;;;;11.60;8.03;;;;;;;;;;5113647;28;20385;-56
2021/04/24 07:35:05;;;;;;;12.60;7.80;;;;;;;;;;5113514;28;20157;-56
2021/04/24 07:37:32;;;;;;;17.53;7.97;;;;;;;;;;5113566;28;20051;-56
2021/04/24 07:39:58;;;;;;;13.33;8.20;;;;;;;;;;5113470;28;20055;-56
2021/04/24 07:42:25;;;;;;;13.73;8.10;;;;;;;;;;5113440;28;20034;-56
2021/04/24 07:44:53;;;;;;;15.63;8.43;;;;;;;;;;5113501;28;20047;-56
2021/04/24 07:47:20;;;;;;;12.30;8.00;;;;;;;;;;5113447;28;20026;-56
2021/04/24 07:49:46;;;;;;;14.37;8.67;;;;;;;;;;5113226;28;20403;-56
2021/04/24 07:52:14;;;;;;;15.77;9.03;;;;;;;;;;5113315;28;20388;-56
2021/04/24 07:54:44;;;;;;;11.73;7.83;;;;;;;;;;5113310;28;20030;-56
2021/04/24 07:57:11;;;;;;;14.10;8.03;;;;;;;;;;5113297;28;20036;-56
2021/04/24 07:59:38;;;;;;;14.17;7.77;;;;;;;;;;5112940;28;20432;-56
2021/04/24 08:02:05;;;;;;;15.47;7.63;;;;;;;;;;5113275;28;20026;-56
2021/04/24 08:04:32;;;;;;;16.33;8.80;;;;;;;;;;5113161;28;20487;-56
2021/04/24 08:06:59;;;;;;;14.57;8.47;;;;;;;;;;5113189;28;20027;-56
2021/04/24 08:09:29;;;;;;;11.07;7.57;;;;;;;;;;5113485;28;20027;-56
2021/04/24 08:11:56;;;;;;;10.17;7.57;;;;;;;;;;5113501;28;20028;-56
2021/04/24 08:14:23;;;;;;;12.90;8.53;;;;;;;;;;5113138;28;20044;-56
2021/04/24 08:16:49;;;;;;;13.73;9.10;;;;;;;;;;5113191;28;20060;-56
2021/04/24 08:19:16;;;;;;;11.13;8.37;;;;;;;;;;5112929;28;20118;-56
2021/04/24 08:21:44;;;;;;;11.33;7.37;;;;;;;;;;5112669;28;20054;-56
2021/04/24 08:24:11;;;;;;;13.20;7.30;;;;;;;;;;5112944;28;20032;-56
2021/04/24 08:26:39;;;;;;;10.37;7.40;;;;;;;;;;5113101;28;20028;-56
2021/04/24 08:29:07;;;;;;;12.83;8.80;;;;;;;;;;5112995;28;20027;-56
2021/04/24 08:31:34;;;;;;;9.53;7.40;;;;;;;;;;5113030;28;20023;-56
2021/04/24 08:34:01;;;;;;;12.20;8.83;;;;;;;;;;5112955;28;20147;-56
2021/04/24 08:36:29;;;;;;;12.80;7.57;;;;;;;;;;5112967;28;20024;-56
2021/04/24 08:38:55;;;;;;;10.83;7.73;;;;;;;;;;5112828;28;20082;-56
2021/04/24 08:41:23;;;;;;;16.60;8.93;;;;;;;;;;5112896;28;20024;-56
2021/04/24 08:43:55;;;;;;;14.17;7.40;;;;;;;;;;5112832;28;20020;-56
2021/04/24 08:46:23;;;;;;;11.07;7.73;;;;;;;;;;5112786;28;20027;-56
2021/04/24 08:48:51;;;;;;;10.37;7.10;;;;;;;;;;5112722;28;20030;-56
2021/04/24 08:51:19;;;;;;;10.70;7.27;;;;;;;;;;5112772;28;20490;-56
2021/04/24 08:53:46;;;;;;;11.93;7.83;;;;;;;;;;5112802;28;20031;-56
2021/04/24 08:56:13;;;;;;;11.97;7.90;;;;;;;;;;5112767;28;20111;-56
2021/04/24 08:58:40;;;;;;;12.60;7.27;;;;;;;;;;5112608;28;20027;-56
2021/04/24 09:01:13;;;;;;;12.17;7.17;;;;;;;;;;5112582;28;20118;-56
2021/04/24 09:03:47;;;;;;;11.83;6.87;;;;;;;;;;5112873;28;20027;-56
2021/04/24 09:06:19;;;;;;;10.10;6.07;;;;;;;;;;5112664;28;20505;-56
2021/04/24 09:08:53;;;;;;;13.50;8.73;;;;;;;;;;5112609;28;20031;-56
2021/04/24 09:11:20;;;;;;;13.30;7.43;;;;;;;;;;5113650;28;20040;-56
2021/04/24 09:13:58;;;;;;;10.27;7.73;;;;;;;;;;5116371;28;20024;-56
2021/04/24 09:16:26;;;;;;;11.37;7.27;;;;;;;;;;5116420;28;20028;-56
2021/04/24 09:18:53;;;;;;;15.37;8.77;;;;;;;;;;5116094;28;20071;-56
2021/04/24 09:21:27;;;;;;;13.07;8.60;;;;;;;;;;5115660;27;20049;-56
2021/04/24 09:23:54;;;;;;;18.70;9.43;;;;;;;;;;5115995;28;20474;-56
2021/04/24 09:26:23;;;;;;;16.60;11.17;;;;;;;;;;5116118;28;20102;-56
2021/04/24 09:28:58;;;;;;;18.53;12.53;;;;;;;;;;5097952;28;20451;-56
2021/04/24 09:31:24;;;;;;;;;;;;;;;;;;5116328;28;20390;-56
2021/04/24 09:33:52;;;;;;;17.73;11.73;;;;;;;;;;5115902;28;20298;-56
2021/04/24 09:36:19;;;;;;;18.30;12.57;;;;;;;;;;5115842;28;20424;-56
2021/04/24 09:38:48;;;;;;;17.30;12.17;;;;;;;;;;5115659;28;20546;-56
2021/04/24 09:41:20;;;;;;;16.03;10.67;;;;;;;;;;5115717;28;20470;-56
2021/04/24 09:43:58;;;;;;;14.40;9.50;;;;;;;;;;5115614;28;20444;-56
2021/04/24 09:46:29;;;;;;;14.57;9.57;;;;;;;;;;5115625;28;20432;-56
2021/04/24 09:49:11;;;;;;;15.07;9.90;;;;;;;;;;5115638;28;20024;-56
2021/04/24 09:52:04;;;;;;;15.87;9.17;;;;;;;;;;5115798;28;20030;-56
2021/04/24 09:54:39;;;;;;;12.80;9.10;;;;;;;;;;5111337;28;20028;-56
2021/04/24 09:57:07;;;;;;;13.67;9.33;;;;;;;;;;5115794;28;20405;-56
2021/04/24 09:59:51;;;;;;;12.20;8.47;;;;;;;;;;5115334;28;20043;-56
2021/04/24 10:02:28;;;;;;;13.20;8.00;;;;;;;;;;5115334;28;20023;-56
2021/04/24 10:05:16;;;;;;;12.00;8.33;;;;;;;;;;5115204;28;20023;-56
2021/04/24 10:07:44;;;;;;;12.20;8.17;;;;;;;;;;5115302;28;20024;-56
2021/04/24 10:10:13;;;;;;;14.33;8.67;;;;;;;;;;5115250;28;20019;-56
2021/04/24 10:12:39;;;;;;;13.70;8.97;;;;;;;;;;5115389;28;20066;-56
2021/04/24 10:15:07;;;;;;;13.67;8.23;;;;;;;;;;5115361;28;20355;-56
2021/04/24 10:17:35;;;;;;;12.23;8.40;;;;;;;;;;5115065;28;20035;-56
2021/04/24 10:20:02;;;;;;;11.97;7.80;;;;;;;;;;5114865;28;20111;-56
2021/04/24 10:22:29;;;;;;;13.97;8.93;;;;;;;;;;5113764;28;20057;-56
2021/04/24 10:24:56;;;;;;;11.23;7.97;;;;;;;;;;5114820;28;20157;-56
2021/04/24 10:27:23;;;;;;;13.07;8.50;;;;;;;;;;5114871;28;20028;-56
2021/04/24 10:29:50;;;;;;;12.70;8.20;;;;;;;;;;5114947;28;20072;-56
2021/04/24 10:32:18;;;;;;;11.87;8.50;;;;;;;;;;5114791;28;20024;-56
2021/04/24 10:34:45;;;;;;;12.23;8.63;;;;;;;;;;5114649;28;20466;-56
2021/04/24 10:37:12;;;;;;;12.60;7.83;;;;;;;;;;5114627;28;20474;-56
2021/04/24 10:39:39;;;;;;;11.90;7.93;;;;;;;;;;5114492;28;20451;-56
2021/04/24 10:42:13;;;;;;;12.73;8.07;;;;;;;;;;5114569;28;20023;-56
2021/04/24 10:44:57;;;;;;;11.30;6.80;;;;;;;;;;5114366;28;20466;-56
2021/04/24 10:50:10;;;;;;;11.53;7.93;;;;;;;;;;5114461;28;20097;-56
2021/04/24 10:52:42;;;;;;;13.60;8.10;;;;;;;;;;5114288;28;20596;-56
2021/04/24 10:55:17;;;;;;;14.17;8.50;;;;;;;;;;5114304;28;20110;-56
2021/04/24 10:57:48;;;;;;;13.30;8.02;;;;;;;;;;5114296;28;20293;-56
2021/04/24 11:00:16;;;;;;;11.17;7.00;;;;;;;;;;5114157;28;20043;-56
2021/04/24 11:02:44;;;;;;;11.90;8.17;;;;;;;;;;5114146;28;20099;-56
2021/04/24 11:05:18;;;;;;;11.77;7.43;;;;;;;;;;5114419;28;20028;-56
2021/04/24 11:07:45;;;;;;;12.00;7.90;;;;;;;;;;5114122;28;20023;-56
2021/04/24 11:10:13;;;;;;;9.97;6.67;;;;;;;;;;5113954;28;20379;-56
2021/04/24 11:12:43;;;;;;;13.60;8.97;;;;;;;;;;5113993;28;20016;-56
2021/04/24 11:15:11;;;;;;;13.30;7.97;;;;;;;;;;5113787;28;20019;-56
2021/04/24 11:17:39;;;;;;;12.43;8.23;;;;;;;;;;5113932;28;20030;-56
2021/04/24 11:20:08;;;;;;;11.60;7.93;;;;;;;;;;5113789;28;20282;-56
2021/04/24 11:22:37;;;;;;;11.90;7.40;;;;;;;;;;5112302;28;20514;-56
2021/04/24 11:25:33;;;;;;;12.60;7.93;;;;;;;;;;5113667;28;20032;-56
2021/04/24 11:27:59;;;;;;;;;;;;;;;;;;5093148;28;20114;-56
2021/04/24 11:30:44;;;;;;;12.13;7.23;;;;;;;;;;5113782;28;19927;-56
2021/04/24 11:33:29;;;;;;;16.58;8.60;;;;;;;;;;5113682;28;20492;-56
2021/04/24 11:38:53;;;;;;;11.40;7.73;;;;;;;;;;5113597;28;20036;-56
2021/04/24 11:41:30;;;;;;;13.13;8.53;;;;;;;;;;5113473;28;20248;-56
2021/04/24 11:43:57;;;;;;;13.47;7.70;;;;;;;;;;5113489;28;20019;-56
2021/04/24 11:46:34;;;;;;;13.97;8.47;;;;;;;;;;5113376;28;20034;-56
2021/04/24 11:49:02;;;;;;;13.83;8.33;;;;;;;;;;5113591;28;20027;-56
2021/04/24 11:51:29;;;;;;;15.50;8.57;;;;;;;;;;5113377;28;20102;-56
2021/04/24 11:53:56;;;;;;;13.83;8.40;;;;;;;;;;5113288;28;20377;-56
2021/04/24 11:56:23;;;;;;;13.83;7.83;;;;;;;;;;5113364;28;20047;-56
2021/04/24 11:58:50;;;;;;;12.47;8.67;;;;;;;;;;5113283;28;20031;-56
2021/04/24 12:01:21;;;;;;;12.10;7.33;;;;;;;;;;5113340;28;20475;-56
2021/04/24 12:03:47;;;;;;;13.20;6.70;;;;;;;;;;5113147;28;20255;-56
2021/04/24 12:06:14;;;;;;;13.70;7.83;;;;;;;;;;5113360;28;20235;-56
2021/04/24 12:08:41;;;;;;;13.63;8.33;;;;;;;;;;5113523;28;20035;-56
2021/04/24 12:11:12;;;;;;;12.07;8.03;;;;;;;;;;5113174;28;20019;-56
2021/04/24 12:13:38;;;;;;;11.63;7.80;;;;;;;;;;5113175;28;20035;-56
2021/04/24 12:16:05;;;;;;;11.07;7.77;;;;;;;;;;5113252;28;20248;-56
2021/04/24 12:18:32;;;;;;;12.73;8.80;;;;;;;;;;5113031;28;20275;-56
2021/04/24 12:20:59;;;;;;;13.33;8.13;;;;;;;;;;5112600;28;20876;-56
2021/04/24 12:23:25;;;;;;;10.77;7.60;;;;;;;;;;5113077;28;20576;-56
2021/04/24 12:25:52;;;;;;;15.13;7.60;;;;;;;;;;5112976;28;20317;-56
2021/04/24 12:28:19;;;;;;;13.33;7.50;;;;;;;;;;5113003;28;20240;-56
2021/04/24 12:30:48;;;;;;;12.47;7.17;;;;;;;;;;5113056;28;20564;-56
2021/04/24 12:33:16;;;;;;;14.33;7.80;;;;;;;;;;5113245;28;20236;-56
2021/04/24 12:35:45;;;;;;;11.60;7.27;;;;;;;;;;5112962;28;20249;-56
2021/04/24 12:38:14;;;;;;;10.03;7.00;;;;;;;;;;5112860;28;20394;-56
2021/04/24 12:40:44;;;;;;;13.10;7.67;;;;;;;;;;5112954;28;20260;-56
2021/04/24 12:43:15;;;;;;;11.50;8.30;;;;;;;;;;5112881;28;20256;-56
2021/04/24 12:45:42;;;;;;;15.67;8.37;;;;;;;;;;5112799;28;20619;-56
2021/04/24 12:48:14;;;;;;;15.17;8.43;;;;;;;;;;5116589;28;20636;-56
2021/04/24 12:50:41;;;;;;;12.13;8.37;;;;;;;;;;5117034;28;20244;-56
2021/04/24 12:53:14;;;;;;;14.67;8.37;;;;;;;;;;5116712;28;20256;-56
2021/04/24 12:55:43;;;;;;;13.13;9.03;;;;;;;;;;5116597;28;20655;-56
2021/04/24 12:58:14;;;;;;;16.10;9.30;;;;;;;;;;5116622;28;20815;-56
2021/04/24 13:00:47;;;;;;;18.27;9.97;;;;;;;;;;5116660;28;20248;-56
2021/04/24 13:03:29;;;;;;;16.30;10.00;;;;;;;;;;5116519;28;20260;-56
2021/04/24 13:05:58;;;;;;;14.93;9.90;;;;;;;;;;5116441;28;20252;-56
2021/04/24 13:08:25;;;;;;;23.50;10.80;;;;;;;;;;5116421;28;20035;-56
2021/04/24 13:11:08;;;;;;;21.73;10.80;;;;;;;;;;5117058;28;20366;-56
2021/04/24 13:13:35;;;;;;;19.23;10.27;;;;;;;;;;5116239;28;20648;-56
2021/04/24 13:16:02;;;;;;;16.00;9.40;;;;;;;;;;5116344;28;20043;-56
2021/04/24 13:18:30;;;;;;;19.93;11.70;;;;;;;;;;5116182;28;20024;-56
2021/04/24 13:20:58;;;;;;;19.70;11.73;;;;;;;;;;5115701;27;20189;-56
2021/04/24 13:23:25;;;;;;;12.87;9.90;;;;;;;;;;5116097;28;20394;-56
2021/04/24 13:25:52;;;;;;;21.40;10.70;;;;;;;;;;5116026;28;20027;-56
2021/04/24 13:28:30;;;;;;;20.73;11.17;;;;;;;;;;5115979;28;20201;-56
2021/04/24 13:31:01;;;;;;;20.57;12.57;;;;;;;;;;5115908;28;20406;-56
2021/04/24 13:33:34;;;;;;;21.17;12.10;;;;;;;;;;5115857;28;20024;-56
2021/04/24 13:36:01;;;;;;;13.67;10.83;;;;;;;;;;5116018;28;20031;-56
2021/04/24 13:38:34;;;;;;;15.13;10.83;;;;;;;;;;5115999;28;20038;-56
2021/04/24 13:41:19;;;;;;;18.27;11.20;;;;;;;;;;5115747;28;20035;-56
2021/04/24 13:43:46;;;;;;;18.30;11.70;;;;;;;;;;5115744;28;20046;-56
2021/04/24 13:46:27;;;;;;;15.60;10.83;;;;;;;;;;5115697;28;20611;-56
2021/04/24 13:48:54;;;;;;;17.47;10.77;;;;;;;;;;5115672;28;20024;-56
2021/04/24 13:51:22;;;;;;;14.20;9.80;;;;;;;;;;5115568;28;20020;-56
2021/04/24 13:53:49;;;;;;;19.63;10.73;;;;;;;;;;5115627;28;20030;-57
2021/04/24 13:56:15;;;;;;;18.77;10.40;;;;;;;;;;5115621;28;20084;-56
2021/04/24 13:58:42;;;;;;;19.30;9.87;;;;;;;;;;5114821;28;20039;-56
2021/04/24 14:01:09;;;;;;;13.33;9.83;;;;;;;;;;5115322;28;20028;-56
2021/04/24 14:03:36;;;;;;;17.00;10.33;;;;;;;;;;5115144;28;20027;-56
2021/04/24 14:06:03;;;;;;;15.63;10.33;;;;;;;;;;5115368;28;20051;-57
2021/04/24 14:08:30;;;;;;;14.60;9.57;;;;;;;;;;5115154;28;20028;-57
2021/04/24 14:10:58;;;;;;;16.23;10.20;;;;;;;;;;5115081;28;20020;-57
2021/04/24 14:13:25;;;;;;;16.73;10.17;;;;;;;;;;5115032;28;20478;-57
2021/04/24 14:15:52;;;;;;;13.57;9.73;;;;;;;;;;5115101;28;20024;-57
2021/04/24 14:18:18;;;;;;;15.07;9.53;;;;;;;;;;5114888;28;20028;-57
2021/04/24 14:20:45;;;;;;;15.03;9.67;;;;;;;;;;5114479;27;20035;-57
2021/04/24 14:23:12;;;;;;;12.43;8.57;;;;;;;;;;5115011;28;20028;-57
2021/04/24 14:25:39;;;;;;;13.03;8.67;;;;;;;;;;5114884;28;20026;-57
2021/04/24 14:28:05;;;;;;;20.63;9.87;;;;;;;;;;5114968;28;20034;-57
2021/04/24 14:30:32;;;;;;;12.60;8.70;;;;;;;;;;5114779;28;20039;-57
2021/04/24 14:32:59;;;;;;;14.63;9.90;;;;;;;;;;5114673;28;20027;-57
2021/04/24 14:35:26;;;;;;;15.67;9.93;;;;;;;;;;5114574;28;20057;-57
2021/04/24 14:37:53;;;;;;;16.27;11.83;;;;;;;;;;5114713;28;20035;-56